Main page

Current weather observation

The report was made 34 minutes ago, at 19:00 UTC
Wind 2 kt from variable directions
Temperature 32°C
Humidity 84%
Pressure 1009 hPa
Visibility: 3500 m

METAR: OTBD 041900Z VRB02KT 3500 HZ NSC 32/29 Q1009 TEMPO 3000

Time: 19:34 (19:34 UTC)


The report was made 2 hours and 34 minutes ago, at 17:00 UTC
Forecast valid from 04 at 18 UTC to 05 at 24 UTC
Wind 5 kt from the North
Visibility: 7000 m
from 04 at 20 UTC to 05 at 05 UTC
Wind 5 kt from the West/Northwest
Visibility: 4000 m
Probability 30% :
from 04 at 22 UTC to 05 at 04 UTC
Visibility: 2000 m
Few clouds at a height of 1000 ft
from 05 at 07 UTC to 05 at 09 UTC
Wind 9 kt from the East/Northeast

TAF: OTBD 041700Z 0418/0524 36005KT 7000 NSC TEMPO 0420/0505 30005KT 4000 HZ PROB30 TEMPO 0422/0504 2000 BR FEW010 BECMG 0507/0509 06009KT


Weather observations and forecasts of more than 4000 airports (METAR and TAF reports).

The available stations are represented by yellow and red dots on the map.

Hover mouse over dot to see the name of the station.

Then click to see weather observations and forecasts.

To change the map : click on the green buttons with a black cross to zoom in, on the green button with a dash to zoom out, or on the green arrows for adjacent maps.